createdAt,value
2019-02-25T00:02:19.807Z,98972.27
2019-02-25T00:04:51.457Z,98977.19
2019-02-25T00:07:22.980Z,98974.27
2019-02-25T00:09:54.572Z,98964.66
2019-02-25T00:12:26.279Z,98971.28
2019-02-25T00:14:57.987Z,98976.45
2019-02-25T00:17:29.638Z,98970.56
2019-02-25T00:20:06.039Z,98975.61
2019-02-25T00:22:37.649Z,98973.16
2019-02-25T00:25:12.378Z,98971.34
2019-02-25T00:27:44.202Z,98964.63
2019-02-25T00:30:17.216Z,98951.16
2019-02-25T00:32:51.816Z,98950.34
2019-02-25T00:35:23.321Z,98953.28
2019-02-25T00:37:57.833Z,98949.02
2019-02-25T00:40:30.975Z,98944.85
2019-02-25T00:43:02.607Z,98941.05
2019-02-25T00:45:34.003Z,98942.97
2019-02-25T00:48:07.645Z,98948.47
2019-02-25T00:50:39.121Z,98940.97
2019-02-25T00:53:10.822Z,98938.33
2019-02-25T00:55:42.379Z,98935.45
2019-02-25T00:58:14.138Z,98934.26
2019-02-25T01:00:45.738Z,98928.75
2019-02-25T01:03:18.425Z,98933.42
2019-02-25T01:05:50.061Z,98926.63
2019-02-25T01:08:21.629Z,98926.62
2019-02-25T01:10:53.338Z,98931.59
2019-02-25T01:13:24.997Z,98927.36
2019-02-25T01:15:58.152Z,98927.44
2019-02-25T01:18:31.457Z,98923.23
2019-02-25T01:21:03.099Z,98924.91
2019-02-25T01:23:34.796Z,98928.67
2019-02-25T01:26:06.386Z,98926.22
2019-02-25T01:28:38.093Z,98917.72
2019-02-25T01:31:09.767Z,98914.73
2019-02-25T01:33:42.075Z,98910.87
2019-02-25T01:36:13.740Z,98909.70
2019-02-25T01:38:45.233Z,98914.20
2019-02-25T01:41:16.773Z,98922.75
2019-02-25T01:43:48.180Z,98919.70
2019-02-25T01:46:19.822Z,98913.93
2019-02-25T01:48:51.530Z,98911.41
2019-02-25T01:51:23.114Z,98914.67
2019-02-25T01:53:54.709Z,98915.52
2019-02-25T01:56:26.366Z,98917.98
2019-02-25T01:58:59.150Z,98923.09
2019-02-25T02:01:30.687Z,98918.92
2019-02-25T02:04:02.422Z,98917.70
2019-02-25T02:06:35.361Z,98921.09
2019-02-25T02:09:08.712Z,98925.75
2019-02-25T02:11:40.881Z,98925.67
2019-02-25T02:14:12.686Z,98929.56
2019-02-25T02:16:44.264Z,98921.98
2019-02-25T02:19:15.890Z,98925.38
2019-02-25T02:21:47.455Z,98925.22
2019-02-25T02:24:19.036Z,98927.30
2019-02-25T02:26:50.687Z,98929.78
2019-02-25T02:29:24.333Z,98918.58
2019-02-25T02:31:57.210Z,98930.34
2019-02-25T02:34:29.999Z,98919.70
2019-02-25T02:37:01.647Z,98933.65
2019-02-25T02:39:33.301Z,98933.24
2019-02-25T02:42:16.307Z,98930.34
2019-02-25T02:44:50.450Z,98928.61
2019-02-25T02:48:00.888Z,98937.05
2019-02-25T02:50:32.988Z,98946.53
2019-02-25T02:53:04.763Z,98942.18
2019-02-25T02:55:37.577Z,98947.38
2019-02-25T02:58:09.320Z,98955.83
2019-02-25T03:00:41.004Z,98959.20
2019-02-25T03:03:12.700Z,98968.45
2019-02-25T03:05:44.344Z,98959.69
2019-02-25T03:08:16.029Z,98961.74
2019-02-25T03:10:47.635Z,98961.25
2019-02-25T03:13:19.184Z,98961.58
2019-02-25T03:15:50.866Z,98966.70
2019-02-25T03:18:22.376Z,98955.36
2019-02-25T03:20:54.059Z,98958.41
2019-02-25T03:23:25.559Z,98966.38
2019-02-25T03:25:57.287Z,98958.35
2019-02-25T03:28:28.976Z,98949.53
2019-02-25T03:31:00.596Z,98950.45
2019-02-25T03:33:32.206Z,98949.19
2019-02-25T03:36:03.879Z,98944.84
2019-02-25T03:38:35.492Z,98946.97
2019-02-25T03:41:07.049Z,98948.16
2019-02-25T03:43:40.421Z,98957.08
2019-02-25T03:46:14.346Z,98962.13
2019-02-25T03:48:45.961Z,98959.59
2019-02-25T03:51:17.528Z,98953.68
2019-02-25T03:53:49.255Z,98950.40
2019-02-25T03:56:20.978Z,98949.99
2019-02-25T03:58:52.665Z,98942.80
2019-02-25T04:01:24.354Z,98945.80
2019-02-25T04:03:57.169Z,98941.92
2019-02-25T04:06:28.853Z,98941.01
2019-02-25T04:09:00.506Z,98940.27
2019-02-25T04:11:33.701Z,98944.05
2019-02-25T04:14:05.362Z,98939.44
2019-02-25T04:16:37.110Z,98941.09
2019-02-25T04:19:08.883Z,98933.98
2019-02-25T04:21:42.060Z,98936.89
2019-02-25T04:24:13.760Z,98936.05
2019-02-25T04:26:45.302Z,98942.55
2019-02-25T04:29:18.616Z,98941.38
2019-02-25T04:31:50.153Z,98942.78
2019-02-25T04:34:21.673Z,98940.59
2019-02-25T04:36:55.038Z,98944.75
2019-02-25T04:39:28.017Z,98931.83
2019-02-25T04:42:00.834Z,98929.64
2019-02-25T04:44:32.489Z,98938.00
2019-02-25T04:47:04.164Z,98933.48
2019-02-25T04:49:35.870Z,98937.27
2019-02-25T04:52:07.554Z,98944.37
2019-02-25T04:54:39.333Z,98944.92
2019-02-25T04:57:10.974Z,98945.70
2019-02-25T04:59:42.656Z,98939.05
2019-02-25T05:02:14.294Z,98938.69
2019-02-25T05:04:45.752Z,98934.81
2019-02-25T05:07:17.356Z,98937.00
2019-02-25T05:09:48.954Z,98940.81
2019-02-25T05:12:20.606Z,98943.38
2019-02-25T05:14:52.062Z,98953.55
2019-02-25T05:17:23.740Z,98951.04
2019-02-25T05:19:55.288Z,98957.89
2019-02-25T05:22:26.937Z,98963.33
2019-02-25T05:24:58.420Z,98969.59
2019-02-25T05:27:30.518Z,98966.31
2019-02-25T05:30:02.169Z,98962.60
2019-02-25T05:32:34.165Z,98960.95
2019-02-25T05:35:06.003Z,98963.87
2019-02-25T05:37:37.603Z,98967.31
2019-02-25T05:40:12.294Z,98962.26
2019-02-25T05:42:44.005Z,98965.72
2019-02-25T05:45:16.392Z,98957.95
2019-02-25T05:47:48.990Z,98961.75
2019-02-25T05:50:23.551Z,98962.66
2019-02-25T05:52:55.147Z,98962.33
2019-02-25T05:55:26.754Z,98961.05
2019-02-25T05:57:58.265Z,98957.34
2019-02-25T06:00:30.861Z,98959.98
2019-02-25T06:03:02.534Z,98954.53
2019-02-25T06:05:34.220Z,98962.56
2019-02-25T06:08:05.873Z,98965.09
2019-02-25T06:10:37.455Z,98971.89
2019-02-25T06:13:12.015Z,98962.58
2019-02-25T06:15:43.728Z,98971.02
2019-02-25T06:18:15.335Z,98973.15
2019-02-25T06:20:46.872Z,98978.72
2019-02-25T06:23:18.548Z,98980.84
2019-02-25T06:25:50.853Z,98982.92
2019-02-25T06:28:22.585Z,98987.98
2019-02-25T06:30:54.291Z,98989.28
2019-02-25T06:33:25.809Z,98986.83
2019-02-25T06:35:57.528Z,98986.53
2019-02-25T06:38:29.111Z,98985.73
2019-02-25T06:41:00.996Z,98984.58
2019-02-25T06:43:32.631Z,98992.66
2019-02-25T06:46:04.200Z,98999.89
2019-02-25T06:48:36.060Z,98992.72
2019-02-25T06:51:07.589Z,98993.22
2019-02-25T06:53:39.307Z,98994.13
2019-02-25T06:56:11.059Z,98984.86
2019-02-25T06:58:42.680Z,98978.08
2019-02-25T07:01:14.383Z,98957.29
2019-02-25T07:03:47.660Z,98978.98
2019-02-25T07:06:37.824Z,98971.31
2019-02-25T07:09:17.153Z,98961.67
2019-02-25T07:12:09.276Z,98956.66
2019-02-25T07:14:56.884Z,98958.73
2019-02-25T07:17:56.306Z,98947.80
2019-02-25T07:20:45.693Z,98936.48
2019-02-25T07:23:37.642Z,98939.02
2019-02-25T07:26:39.420Z,98945.38
2019-02-25T07:29:29.728Z,98947.06
2019-02-25T07:32:18.096Z,98953.02
2019-02-25T07:35:04.692Z,98951.78
2019-02-25T07:38:05.725Z,98945.08
2019-02-25T07:41:01.169Z,98939.67
2019-02-25T07:43:43.955Z,98946.34
2019-02-25T07:46:32.751Z,98940.02
2019-02-25T07:49:17.794Z,98938.38
2019-02-25T07:52:01.653Z,98938.96
2019-02-25T07:54:42.731Z,98935.64
2019-02-25T07:57:35.963Z,98936.93
2019-02-25T08:00:21.244Z,98933.19
2019-02-25T08:03:14.560Z,98931.50
2019-02-25T08:05:59.343Z,98931.14
2019-02-25T08:08:48.434Z,98926.52
2019-02-25T08:11:29.265Z,98929.94
2019-02-25T08:14:25.649Z,98931.22
2019-02-25T08:17:14.675Z,98929.52
2019-02-25T08:20:02.476Z,98918.11
2019-02-25T08:23:10.865Z,98921.50
2019-02-25T08:25:59.784Z,98919.81
2019-02-25T08:28:38.708Z,98918.55
2019-02-25T08:31:27.363Z,98922.79
2019-02-25T08:34:18.309Z,98926.99
2019-02-25T08:37:25.897Z,98925.31
2019-02-25T08:40:24.270Z,98927.02
2019-02-25T08:42:58.615Z,98925.73
2019-02-25T08:45:51.925Z,98929.12
2019-02-25T08:48:39.834Z,98918.95
2019-02-25T08:51:11.362Z,98915.58
2019-02-25T08:53:42.977Z,98915.58
2019-02-25T08:56:14.625Z,98921.91
2019-02-25T08:58:46.147Z,98914.30
2019-02-25T09:01:17.689Z,98917.70
2019-02-25T09:03:49.321Z,98922.76
2019-02-25T09:06:20.982Z,98922.73
2019-02-25T09:08:52.657Z,98918.53
2019-02-25T09:11:24.284Z,98923.15
2019-02-25T09:13:55.884Z,98909.17
2019-02-25T09:16:27.487Z,98920.62
2019-02-25T09:18:59.889Z,98920.17
2019-02-25T09:21:32.199Z,98922.69
2019-02-25T09:24:04.138Z,98923.95
2019-02-25T09:26:35.631Z,98919.73
2019-02-25T09:29:07.425Z,98915.08
2019-02-25T09:31:39.132Z,98919.70
2019-02-25T09:34:11.905Z,98915.78
2019-02-25T09:36:43.540Z,98912.34
2019-02-25T09:39:16.825Z,98906.02
2019-02-25T09:41:48.685Z,98917.63
2019-02-25T09:44:20.349Z,98922.14
2019-02-25T09:46:52.197Z,98917.97
2019-02-25T09:49:23.883Z,98918.95
2019-02-25T09:51:55.751Z,98915.12
2019-02-25T09:54:27.414Z,98914.96
2019-02-25T09:57:01.424Z,98908.86
2019-02-25T09:59:33.150Z,98911.39
2019-02-25T10:02:06.265Z,98907.05
2019-02-25T10:04:38.024Z,98909.02
2019-02-25T10:07:09.836Z,98905.28
2019-02-25T10:09:41.470Z,98902.50
2019-02-25T10:12:14.340Z,98900.80
2019-02-25T10:14:49.495Z,98901.39
2019-02-25T10:17:23.801Z,98896.86
2019-02-25T10:19:52.766Z,98895.55
2019-02-25T10:22:24.543Z,98890.75
2019-02-25T10:24:56.295Z,98880.73
2019-02-25T10:27:30.745Z,98893.92
2019-02-25T10:30:01.397Z,98886.34
2019-02-25T10:32:34.343Z,98877.72
2019-02-25T10:35:06.654Z,98886.70
2019-02-25T10:37:38.867Z,98887.06
2019-02-25T10:40:13.670Z,98881.86
2019-02-25T10:42:46.340Z,98879.50
2019-02-25T10:45:18.576Z,98868.29
2019-02-25T10:47:51.650Z,98862.66
2019-02-25T10:50:23.585Z,98860.03
2019-02-25T10:53:03.295Z,98855.20
2019-02-25T10:55:37.877Z,98833.34
2019-02-25T10:58:10.380Z,98838.41
2019-02-25T11:00:43.779Z,98829.34
2019-02-25T11:03:17.404Z,98826.98
2019-02-25T11:05:48.854Z,98826.84
2019-02-25T11:08:21.096Z,98823.62
2019-02-25T11:11:02.577Z,98822.58
2019-02-25T11:13:36.514Z,98818.13
2019-02-25T11:16:09.861Z,98824.74
2019-02-25T11:18:42.444Z,98811.92
2019-02-25T11:21:14.046Z,98810.13
2019-02-25T11:23:47.141Z,98802.00
2019-02-25T11:26:20.454Z,98806.74
2019-02-25T11:28:52.086Z,98797.52
2019-02-25T11:31:26.359Z,98798.56
2019-02-25T11:33:58.582Z,98802.96
2019-02-25T11:36:30.447Z,98794.80
2019-02-25T11:39:02.916Z,98792.72
2019-02-25T11:41:38.758Z,98798.20
2019-02-25T11:44:10.161Z,98774.50
2019-02-25T11:46:41.970Z,98775.71
2019-02-25T11:49:13.667Z,98764.23
2019-02-25T11:51:45.326Z,98760.59
2019-02-25T11:54:16.958Z,98750.45
2019-02-25T11:56:48.646Z,98747.75
2019-02-25T11:59:20.310Z,98747.94
2019-02-25T12:01:54.350Z,98740.66
2019-02-25T12:04:27.526Z,98731.91
2019-02-25T12:06:59.211Z,98728.57
2019-02-25T12:09:30.922Z,98723.55
2019-02-25T12:12:03.672Z,98732.89
2019-02-25T12:14:35.189Z,98729.26
2019-02-25T12:17:06.895Z,98716.26
2019-02-25T12:19:38.402Z,98711.20
2019-02-25T12:22:10.207Z,98706.30
2019-02-25T12:24:43.443Z,98694.94
2019-02-25T12:27:15.107Z,98695.67
2019-02-25T12:29:48.134Z,98696.91
2019-02-25T12:32:20.805Z,98685.61
2019-02-25T12:34:52.442Z,98677.55
2019-02-25T12:37:27.328Z,98681.53
2019-02-25T12:39:58.914Z,98673.67
2019-02-25T12:42:31.170Z,98674.25
2019-02-25T12:45:02.771Z,98671.12
2019-02-25T12:47:34.754Z,98665.81
2019-02-25T12:50:08.075Z,98656.39
2019-02-25T12:52:39.713Z,98664.73
2019-02-25T12:55:12.423Z,98656.11
2019-02-25T12:57:44.058Z,98650.86
2019-02-25T13:00:16.158Z,98648.38
2019-02-25T13:02:47.778Z,98650.84
2019-02-25T13:05:19.711Z,98644.55
2019-02-25T13:07:51.400Z,98648.10
2019-02-25T13:10:23.072Z,98637.48
2019-02-25T13:12:54.830Z,98638.02
2019-02-25T13:15:26.309Z,98633.18
2019-02-25T13:18:00.091Z,98628.05
2019-02-25T13:20:31.308Z,98616.60
2019-02-25T13:23:02.894Z,98617.12
2019-02-25T13:25:34.598Z,98609.84
2019-02-25T13:28:09.200Z,98609.94
2019-02-25T13:30:40.830Z,98595.78
2019-02-25T13:33:12.561Z,98597.48
2019-02-25T13:35:44.327Z,98595.40
2019-02-25T13:38:16.313Z,98590.76
2019-02-25T13:40:52.514Z,98589.20
2019-02-25T13:43:24.283Z,98581.80
2019-02-25T13:45:59.144Z,98571.41
2019-02-25T13:48:32.253Z,98568.80
2019-02-25T13:51:04.223Z,98572.62
2019-02-25T13:53:40.410Z,98569.83
2019-02-25T13:56:13.031Z,98564.16
2019-02-25T13:58:47.960Z,98559.62
2019-02-25T14:01:19.610Z,98558.67
2019-02-25T14:03:51.665Z,98552.23
2019-02-25T14:06:28.372Z,98549.88
2019-02-25T14:09:03.989Z,98553.31
2019-02-25T14:11:37.227Z,98541.39
2019-02-25T14:14:08.766Z,98536.84
2019-02-25T14:16:40.475Z,98526.81
2019-02-25T14:19:12.241Z,98524.17
2019-02-25T14:21:43.990Z,98513.61
2019-02-25T14:24:18.464Z,98519.11
2019-02-25T14:26:49.996Z,98514.90
2019-02-25T14:29:26.215Z,98511.64
2019-02-25T14:31:55.454Z,98512.91
2019-02-25T14:34:27.156Z,98504.02
2019-02-25T14:36:59.751Z,98497.95
2019-02-25T14:39:32.997Z,98497.05
2019-02-25T14:42:06.821Z,98492.13
2019-02-25T14:44:41.218Z,98487.97
2019-02-25T14:47:20.449Z,98491.34
2019-02-25T14:49:47.437Z,98491.67
2019-02-25T14:52:19.843Z,98495.48
2019-02-25T14:54:52.775Z,98497.34
2019-02-25T14:57:24.855Z,98498.52
2019-02-25T14:59:57.676Z,98495.02
2019-02-25T15:02:29.553Z,98488.21
2019-02-25T15:05:01.145Z,98490.48
2019-02-25T15:07:32.930Z,98488.88
2019-02-25T15:10:06.366Z,98476.05
2019-02-25T15:12:39.843Z,98475.86
2019-02-25T15:15:12.708Z,98467.53
2019-02-25T15:17:45.703Z,98461.66
2019-02-25T15:20:18.649Z,98462.52
2019-02-25T15:22:51.518Z,98457.12
2019-02-25T15:25:23.456Z,98448.56
2019-02-25T15:27:55.093Z,98444.91
2019-02-25T15:30:30.404Z,98444.44
2019-02-25T15:33:01.259Z,98442.49
2019-02-25T15:35:35.104Z,98452.28
2019-02-25T15:38:06.520Z,98454.84
2019-02-25T15:40:38.382Z,98455.34
2019-02-25T15:43:13.358Z,98455.05
2019-02-25T15:45:50.726Z,98451.80
2019-02-25T15:48:23.212Z,98442.54
2019-02-25T15:51:00.628Z,98433.47
2019-02-25T15:53:31.419Z,98428.44
2019-02-25T15:56:08.197Z,98427.13
2019-02-25T15:58:39.089Z,98430.19
2019-02-25T16:01:10.744Z,98437.91
2019-02-25T16:03:43.144Z,98437.87
2019-02-25T16:06:15.281Z,98438.73
2019-02-25T16:08:49.899Z,98433.73
2019-02-25T16:11:25.497Z,98433.47
2019-02-25T16:13:55.713Z,98425.43
2019-02-25T16:16:29.223Z,98421.33
2019-02-25T16:19:05.977Z,98424.42
2019-02-25T16:21:40.762Z,98423.25
2019-02-25T16:24:12.305Z,98418.69
2019-02-25T16:26:44.854Z,98427.61
2019-02-25T16:29:16.524Z,98432.63
2019-02-25T16:31:51.552Z,98432.70
2019-02-25T16:34:24.274Z,98426.80
2019-02-25T16:36:56.436Z,98420.92
2019-02-25T16:39:29.126Z,98412.14
2019-02-25T16:42:02.196Z,98411.30
2019-02-25T16:44:34.059Z,98407.16
2019-02-25T16:47:05.755Z,98416.20
2019-02-25T16:49:39.834Z,98406.64
2019-02-25T16:52:11.789Z,98397.37
2019-02-25T16:54:45.384Z,98371.95
2019-02-25T16:57:18.497Z,98380.56
2019-02-25T16:59:53.534Z,98384.93
2019-02-25T17:02:23.778Z,98379.54
2019-02-25T17:04:55.629Z,98374.15
2019-02-25T17:07:28.588Z,98366.58
2019-02-25T17:10:00.827Z,98362.34
2019-02-25T17:12:33.898Z,98361.95
2019-02-25T17:15:06.059Z,98362.87
2019-02-25T17:17:37.779Z,98360.77
2019-02-25T17:20:13.027Z,98360.40
2019-02-25T17:22:46.148Z,98352.38
2019-02-25T17:25:18.027Z,98342.29
2019-02-25T17:27:49.812Z,98340.62
2019-02-25T17:30:21.932Z,98332.77
2019-02-25T17:32:54.917Z,98332.41
2019-02-25T17:35:28.849Z,98316.76
2019-02-25T17:38:01.272Z,98317.27
2019-02-25T17:40:34.238Z,98324.20
2019-02-25T17:43:11.080Z,98322.91
2019-02-25T17:45:44.828Z,98311.58
2019-02-25T17:48:18.200Z,98309.09
2019-02-25T17:50:49.909Z,98299.72
2019-02-25T17:53:23.586Z,98308.74
2019-02-25T17:55:55.448Z,98302.89
2019-02-25T17:58:28.339Z,98309.27
2019-02-25T18:01:02.910Z,98301.27
2019-02-25T18:03:37.332Z,98303.44
2019-02-25T18:06:09.026Z,98293.67
2019-02-25T18:08:40.609Z,98295.81
2019-02-25T18:11:13.595Z,98295.06
2019-02-25T18:13:48.947Z,98288.34
2019-02-25T18:16:21.018Z,98287.87
2019-02-25T18:18:54.492Z,98283.66
2019-02-25T18:21:28.922Z,98283.71
2019-02-25T18:24:00.878Z,98278.23
2019-02-25T18:26:32.948Z,98266.05
2019-02-25T18:29:05.544Z,98267.72
2019-02-25T18:31:38.388Z,98264.36
2019-02-25T18:34:11.228Z,98261.84
2019-02-25T18:36:45.166Z,98252.56
2019-02-25T18:39:17.178Z,98250.42
2019-02-25T18:41:50.481Z,98255.08
2019-02-25T18:44:22.449Z,98238.63
2019-02-25T18:46:54.308Z,98247.44
2019-02-25T18:49:27.819Z,98247.44
2019-02-25T18:51:59.384Z,98245.80
2019-02-25T18:54:31.058Z,98243.33
2019-02-25T18:57:04.984Z,98245.00
2019-02-25T18:59:38.048Z,98246.27
2019-02-25T19:02:10.628Z,98235.70
2019-02-25T19:04:44.001Z,98239.56
2019-02-25T19:07:18.982Z,98241.68
2019-02-25T19:09:51.621Z,98240.50
2019-02-25T19:12:24.151Z,98241.70
2019-02-25T19:14:57.567Z,98226.94
2019-02-25T19:17:29.760Z,98228.20
2019-02-25T19:20:04.560Z,98216.42
2019-02-25T19:22:37.700Z,98211.78
2019-02-25T19:25:14.999Z,98222.76
2019-02-25T19:27:44.231Z,98216.03
2019-02-25T19:30:19.581Z,98215.69
2019-02-25T19:32:50.043Z,98206.41
2019-02-25T19:35:25.774Z,98199.17
2019-02-25T19:37:55.280Z,98194.61
2019-02-25T19:40:27.385Z,98188.18
2019-02-25T19:43:01.631Z,98182.72
2019-02-25T19:45:36.404Z,98182.26
2019-02-25T19:48:08.476Z,98183.95
2019-02-25T19:50:50.640Z,98186.97
2019-02-25T19:53:15.386Z,98187.37
2019-02-25T19:55:48.798Z,98187.84
2019-02-25T19:58:20.258Z,98176.05
2019-02-25T20:00:56.136Z,98185.41
2019-02-25T20:03:25.549Z,98188.78
2019-02-25T20:05:57.148Z,98187.11
2019-02-25T20:08:30.007Z,98195.16
2019-02-25T20:11:03.390Z,98189.67
2019-02-25T20:13:35.116Z,98182.52
2019-02-25T20:16:08.075Z,98187.99
2019-02-25T20:18:41.956Z,98193.47
2019-02-25T20:21:15.268Z,98193.06
2019-02-25T20:23:47.971Z,98196.50
2019-02-25T20:26:22.205Z,98174.93
2019-02-25T20:28:53.694Z,98169.89
2019-02-25T20:31:25.436Z,98163.53
2019-02-25T20:33:57.886Z,98169.09
2019-02-25T20:36:31.075Z,98177.09
2019-02-25T20:39:03.968Z,98180.91
2019-02-25T20:41:36.153Z,98178.78
2019-02-25T20:44:09.011Z,98177.91
2019-02-25T20:46:40.842Z,98185.56
2019-02-25T20:49:14.243Z,98183.90
2019-02-25T20:51:45.756Z,98175.42
2019-02-25T20:54:18.488Z,98193.63
2019-02-25T20:56:51.564Z,98178.37
2019-02-25T20:59:25.789Z,98171.13
2019-02-25T21:01:57.649Z,98170.33
2019-02-25T21:04:29.249Z,98181.30
2019-02-25T21:07:04.418Z,98175.84
2019-02-25T21:09:37.910Z,98169.99
2019-02-25T21:12:12.699Z,98174.17
2019-02-25T21:14:44.979Z,98165.69
2019-02-25T21:17:16.752Z,98167.88
2019-02-25T21:19:48.507Z,98167.45
2019-02-25T21:22:23.387Z,98161.55
2019-02-25T21:24:57.687Z,98160.25
2019-02-25T21:27:32.592Z,98163.22
2019-02-25T21:30:07.815Z,98170.44
2019-02-25T21:32:43.197Z,98175.08
2019-02-25T21:35:14.546Z,98160.67
2019-02-25T21:37:48.291Z,98164.54
2019-02-25T21:40:20.033Z,98157.39
2019-02-25T21:42:56.374Z,98157.80
2019-02-25T21:45:29.662Z,98155.36
2019-02-25T21:48:01.858Z,98148.66
2019-02-25T21:50:36.031Z,98141.41
2019-02-25T21:53:09.435Z,98146.99
2019-02-25T21:55:44.688Z,98141.05
2019-02-25T21:58:18.509Z,98140.58
2019-02-25T22:00:50.976Z,98147.40
2019-02-25T22:03:22.918Z,98142.73
2019-02-25T22:05:56.205Z,98146.95
2019-02-25T22:08:29.065Z,98151.59
2019-02-25T22:11:12.255Z,98153.67
2019-02-25T22:13:39.098Z,98154.08
2019-02-25T22:16:10.897Z,98155.02
2019-02-25T22:18:42.612Z,98157.11
2019-02-25T22:21:16.605Z,98159.58
2019-02-25T22:23:54.057Z,98157.09
2019-02-25T22:26:27.194Z,98150.31
2019-02-25T22:28:59.526Z,98154.11
2019-02-25T22:31:32.996Z,98152.50
2019-02-25T22:34:06.784Z,98152.04
2019-02-25T22:36:41.552Z,98148.64
2019-02-25T22:39:12.418Z,98134.72
2019-02-25T22:41:44.450Z,98141.46
2019-02-25T22:44:20.096Z,98128.77
2019-02-25T22:46:51.653Z,98143.94
2019-02-25T22:49:24.638Z,98148.58
2019-02-25T22:51:58.163Z,98142.25
2019-02-25T22:54:30.066Z,98143.94
2019-02-25T22:57:01.586Z,98146.49
2019-02-25T22:59:35.038Z,98133.35
2019-02-25T23:02:06.338Z,98130.42
2019-02-25T23:04:38.412Z,98134.18
2019-02-25T23:07:13.057Z,98128.66
2019-02-25T23:09:47.576Z,98127.02
2019-02-25T23:12:19.766Z,98122.84
2019-02-25T23:14:54.339Z,98134.68
2019-02-25T23:17:31.118Z,98128.35
2019-02-25T23:20:02.650Z,98112.30
2019-02-25T23:22:36.605Z,98110.60
2019-02-25T23:25:08.756Z,98103.40
2019-02-25T23:27:41.222Z,98113.97
2019-02-25T23:30:14.389Z,98118.17
2019-02-25T23:32:46.145Z,98110.12
2019-02-25T23:35:18.383Z,98108.88
2019-02-25T23:37:51.939Z,98107.14
2019-02-25T23:40:24.478Z,98091.92
2019-02-25T23:42:56.369Z,98097.94
2019-02-25T23:45:27.928Z,98096.98
2019-02-25T23:48:01.741Z,98094.44
2019-02-25T23:50:36.121Z,98091.97
2019-02-25T23:53:08.028Z,98094.09
2019-02-25T23:55:43.152Z,98088.57
2019-02-25T23:58:14.686Z,98086.09
